sensor_id;sensor_type;location;lat;lon;timestamp;P1;durP1;ratioP1;P2;durP2;ratioP2
21114;SDS011;10715;48.546;9.896;2023-04-07T00:00:06;2.10;;;1.40;;
21114;SDS011;10715;48.546;9.896;2023-04-07T00:02:32;2.93;;;2.70;;
21114;SDS011;10715;48.546;9.896;2023-04-07T00:04:58;2.13;;;1.77;;
21114;SDS011;10715;48.546;9.896;2023-04-07T00:07:24;2.33;;;1.70;;
21114;SDS011;10715;48.546;9.896;2023-04-07T00:09:49;2.10;;;1.90;;
21114;SDS011;10715;48.546;9.896;2023-04-07T00:12:15;3.53;;;2.50;;
21114;SDS011;10715;48.546;9.896;2023-04-07T00:14:41;3.27;;;2.30;;
21114;SDS011;10715;48.546;9.896;2023-04-07T00:17:07;3.23;;;1.83;;
21114;SDS011;10715;48.546;9.896;2023-04-07T00:19:32;2.67;;;2.47;;
21114;SDS011;10715;48.546;9.896;2023-04-07T00:21:58;4.00;;;1.67;;
21114;SDS011;10715;48.546;9.896;2023-04-07T00:24:24;5.70;;;1.60;;
21114;SDS011;10715;48.546;9.896;2023-04-07T00:26:50;2.53;;;1.90;;
21114;SDS011;10715;48.546;9.896;2023-04-07T00:29:15;2.40;;;1.40;;
21114;SDS011;10715;48.546;9.896;2023-04-07T00:31:41;1.70;;;1.43;;
21114;SDS011;10715;48.546;9.896;2023-04-07T00:34:07;2.20;;;1.63;;
21114;SDS011;10715;48.546;9.896;2023-04-07T00:36:32;4.40;;;3.00;;
21114;SDS011;10715;48.546;9.896;2023-04-07T00:38:58;2.40;;;2.07;;
21114;SDS011;10715;48.546;9.896;2023-04-07T00:41:24;2.93;;;1.80;;
21114;SDS011;10715;48.546;9.896;2023-04-07T00:43:50;3.27;;;2.90;;
21114;SDS011;10715;48.546;9.896;2023-04-07T00:46:16;4.10;;;2.90;;
21114;SDS011;10715;48.546;9.896;2023-04-07T00:48:45;5.03;;;1.80;;
21114;SDS011;10715;48.546;9.896;2023-04-07T00:51:11;4.77;;;2.40;;
21114;SDS011;10715;48.546;9.896;2023-04-07T00:53:37;3.47;;;2.07;;
21114;SDS011;10715;48.546;9.896;2023-04-07T00:56:03;2.57;;;2.37;;
21114;SDS011;10715;48.546;9.896;2023-04-07T00:58:29;2.43;;;2.23;;
21114;SDS011;10715;48.546;9.896;2023-04-07T01:01:02;3.70;;;2.93;;
21114;SDS011;10715;48.546;9.896;2023-04-07T01:03:34;3.70;;;3.30;;
21114;SDS011;10715;48.546;9.896;2023-04-07T01:06:05;3.63;;;2.47;;
21114;SDS011;10715;48.546;9.896;2023-04-07T01:13:51;2.53;;;2.33;;
21114;SDS011;10715;48.546;9.896;2023-04-07T01:16:29;2.90;;;2.10;;
21114;SDS011;10715;48.546;9.896;2023-04-07T01:19:11;3.33;;;2.13;;
21114;SDS011;10715;48.546;9.896;2023-04-07T01:21:42;3.27;;;2.93;;
21114;SDS011;10715;48.546;9.896;2023-04-07T01:24:16;3.00;;;2.80;;
21114;SDS011;10715;48.546;9.896;2023-04-07T01:29:51;3.03;;;2.70;;
21114;SDS011;10715;48.546;9.896;2023-04-07T01:32:18;4.73;;;3.50;;
21114;SDS011;10715;48.546;9.896;2023-04-07T01:34:46;3.70;;;2.87;;
21114;SDS011;10715;48.546;9.896;2023-04-07T01:37:13;3.53;;;2.70;;
21114;SDS011;10715;48.546;9.896;2023-04-07T01:39:41;6.17;;;2.60;;
21114;SDS011;10715;48.546;9.896;2023-04-07T01:42:10;4.00;;;3.00;;
21114;SDS011;10715;48.546;9.896;2023-04-07T01:44:36;3.87;;;3.40;;
21114;SDS011;10715;48.546;9.896;2023-04-07T01:47:03;4.33;;;3.80;;
21114;SDS011;10715;48.546;9.896;2023-04-07T01:49:30;5.83;;;3.40;;
21114;SDS011;10715;48.546;9.896;2023-04-07T01:51:56;3.50;;;2.50;;
21114;SDS011;10715;48.546;9.896;2023-04-07T01:54:22;4.83;;;3.13;;
21114;SDS011;10715;48.546;9.896;2023-04-07T01:56:48;4.40;;;4.00;;
21114;SDS011;10715;48.546;9.896;2023-04-07T01:59:13;4.97;;;3.20;;
21114;SDS011;10715;48.546;9.896;2023-04-07T02:01:39;9.00;;;4.70;;
21114;SDS011;10715;48.546;9.896;2023-04-07T02:07:16;5.47;;;3.80;;
21114;SDS011;10715;48.546;9.896;2023-04-07T02:09:47;4.23;;;3.83;;
21114;SDS011;10715;48.546;9.896;2023-04-07T02:12:15;5.97;;;4.67;;
21114;SDS011;10715;48.546;9.896;2023-04-07T02:14:41;5.30;;;4.57;;
21114;SDS011;10715;48.546;9.896;2023-04-07T02:17:08;9.30;;;5.57;;
21114;SDS011;10715;48.546;9.896;2023-04-07T02:19:35;11.90;;;4.97;;
21114;SDS011;10715;48.546;9.896;2023-04-07T02:22:02;5.30;;;4.03;;
21114;SDS011;10715;48.546;9.896;2023-04-07T02:24:28;4.23;;;3.60;;
21114;SDS011;10715;48.546;9.896;2023-04-07T02:26:54;5.93;;;4.57;;
21114;SDS011;10715;48.546;9.896;2023-04-07T02:29:21;5.70;;;4.23;;
21114;SDS011;10715;48.546;9.896;2023-04-07T02:31:47;4.80;;;3.90;;
21114;SDS011;10715;48.546;9.896;2023-04-07T02:34:12;5.70;;;4.77;;
21114;SDS011;10715;48.546;9.896;2023-04-07T02:36:38;5.27;;;3.97;;
21114;SDS011;10715;48.546;9.896;2023-04-07T02:39:04;7.63;;;4.73;;
21114;SDS011;10715;48.546;9.896;2023-04-07T02:41:30;6.27;;;5.60;;
21114;SDS011;10715;48.546;9.896;2023-04-07T02:43:55;11.00;;;6.63;;
21114;SDS011;10715;48.546;9.896;2023-04-07T02:46:21;12.07;;;5.33;;
21114;SDS011;10715;48.546;9.896;2023-04-07T02:48:47;4.30;;;3.90;;
21114;SDS011;10715;48.546;9.896;2023-04-07T02:51:12;8.43;;;5.60;;
21114;SDS011;10715;48.546;9.896;2023-04-07T02:53:38;6.77;;;4.50;;
21114;SDS011;10715;48.546;9.896;2023-04-07T02:56:04;9.27;;;6.30;;
21114;SDS011;10715;48.546;9.896;2023-04-07T02:58:29;8.77;;;5.53;;
21114;SDS011;10715;48.546;9.896;2023-04-07T03:00:55;10.70;;;6.47;;
21114;SDS011;10715;48.546;9.896;2023-04-07T03:03:21;7.57;;;6.20;;
21114;SDS011;10715;48.546;9.896;2023-04-07T03:05:46;9.27;;;5.77;;
21114;SDS011;10715;48.546;9.896;2023-04-07T03:08:12;7.17;;;5.13;;
21114;SDS011;10715;48.546;9.896;2023-04-07T03:10:38;11.73;;;7.37;;
21114;SDS011;10715;48.546;9.896;2023-04-07T03:13:03;5.10;;;4.57;;
21114;SDS011;10715;48.546;9.896;2023-04-07T03:15:29;12.30;;;6.50;;
21114;SDS011;10715;48.546;9.896;2023-04-07T03:17:55;8.80;;;6.83;;
21114;SDS011;10715;48.546;9.896;2023-04-07T03:20:21;12.13;;;6.20;;
21114;SDS011;10715;48.546;9.896;2023-04-07T03:22:47;10.53;;;7.77;;
21114;SDS011;10715;48.546;9.896;2023-04-07T03:25:12;18.30;;;8.07;;
21114;SDS011;10715;48.546;9.896;2023-04-07T03:27:38;8.67;;;6.17;;
21114;SDS011;10715;48.546;9.896;2023-04-07T03:30:04;11.07;;;6.13;;
21114;SDS011;10715;48.546;9.896;2023-04-07T03:32:30;11.97;;;5.60;;
21114;SDS011;10715;48.546;9.896;2023-04-07T03:34:56;11.37;;;8.30;;
21114;SDS011;10715;48.546;9.896;2023-04-07T03:37:21;12.10;;;6.90;;
21114;SDS011;10715;48.546;9.896;2023-04-07T03:39:47;7.50;;;5.80;;
21114;SDS011;10715;48.546;9.896;2023-04-07T03:42:13;9.73;;;6.90;;
21114;SDS011;10715;48.546;9.896;2023-04-07T03:44:38;13.60;;;7.30;;
21114;SDS011;10715;48.546;9.896;2023-04-07T03:47:04;10.63;;;8.30;;
21114;SDS011;10715;48.546;9.896;2023-04-07T03:49:30;14.57;;;6.10;;
21114;SDS011;10715;48.546;9.896;2023-04-07T03:51:56;14.57;;;7.30;;
21114;SDS011;10715;48.546;9.896;2023-04-07T03:54:22;8.73;;;5.73;;
21114;SDS011;10715;48.546;9.896;2023-04-07T03:56:48;10.77;;;7.23;;
21114;SDS011;10715;48.546;9.896;2023-04-07T03:59:13;12.40;;;7.20;;
21114;SDS011;10715;48.546;9.896;2023-04-07T04:01:39;14.07;;;7.63;;
21114;SDS011;10715;48.546;9.896;2023-04-07T04:04:05;9.57;;;7.20;;
21114;SDS011;10715;48.546;9.896;2023-04-07T04:06:31;9.23;;;5.93;;
21114;SDS011;10715;48.546;9.896;2023-04-07T04:08:56;12.43;;;7.20;;
21114;SDS011;10715;48.546;9.896;2023-04-07T04:11:22;9.17;;;7.20;;
21114;SDS011;10715;48.546;9.896;2023-04-07T04:13:48;14.13;;;7.87;;
21114;SDS011;10715;48.546;9.896;2023-04-07T04:16:13;12.40;;;6.23;;
21114;SDS011;10715;48.546;9.896;2023-04-07T04:18:39;12.23;;;7.07;;
21114;SDS011;10715;48.546;9.896;2023-04-07T04:21:05;15.07;;;8.87;;
21114;SDS011;10715;48.546;9.896;2023-04-07T04:23:32;15.20;;;8.10;;
21114;SDS011;10715;48.546;9.896;2023-04-07T04:28:26;15.20;;;7.97;;
21114;SDS011;10715;48.546;9.896;2023-04-07T04:30:51;10.90;;;7.97;;
21114;SDS011;10715;48.546;9.896;2023-04-07T04:33:17;9.77;;;6.97;;
21114;SDS011;10715;48.546;9.896;2023-04-07T04:35:43;16.17;;;8.90;;
21114;SDS011;10715;48.546;9.896;2023-04-07T04:38:10;17.37;;;7.73;;
21114;SDS011;10715;48.546;9.896;2023-04-07T04:40:36;17.27;;;7.97;;
21114;SDS011;10715;48.546;9.896;2023-04-07T04:43:01;8.50;;;6.90;;
21114;SDS011;10715;48.546;9.896;2023-04-07T04:45:31;15.67;;;8.47;;
21114;SDS011;10715;48.546;9.896;2023-04-07T04:47:57;13.50;;;9.00;;
21114;SDS011;10715;48.546;9.896;2023-04-07T04:50:23;10.57;;;6.60;;
21114;SDS011;10715;48.546;9.896;2023-04-07T04:52:48;11.07;;;7.23;;
21114;SDS011;10715;48.546;9.896;2023-04-07T04:55:14;14.13;;;8.77;;
21114;SDS011;10715;48.546;9.896;2023-04-07T04:57:40;15.93;;;7.90;;
21114;SDS011;10715;48.546;9.896;2023-04-07T05:00:06;16.03;;;9.80;;
21114;SDS011;10715;48.546;9.896;2023-04-07T05:02:32;10.97;;;9.07;;
21114;SDS011;10715;48.546;9.896;2023-04-07T05:04:58;16.13;;;9.50;;
21114;SDS011;10715;48.546;9.896;2023-04-07T05:07:24;14.10;;;8.37;;
21114;SDS011;10715;48.546;9.896;2023-04-07T05:09:50;14.87;;;8.80;;
21114;SDS011;10715;48.546;9.896;2023-04-07T05:12:15;19.80;;;8.30;;
21114;SDS011;10715;48.546;9.896;2023-04-07T05:14:41;11.70;;;7.17;;
21114;SDS011;10715;48.546;9.896;2023-04-07T05:17:07;14.50;;;8.50;;
21114;SDS011;10715;48.546;9.896;2023-04-07T05:19:33;14.00;;;8.53;;
21114;SDS011;10715;48.546;9.896;2023-04-07T05:21:59;14.50;;;9.03;;
21114;SDS011;10715;48.546;9.896;2023-04-07T05:24:25;129.97;;;54.73;;
21114;SDS011;10715;48.546;9.896;2023-04-07T05:26:52;59.23;;;30.70;;
21114;SDS011;10715;48.546;9.896;2023-04-07T05:29:18;43.70;;;20.53;;
21114;SDS011;10715;48.546;9.896;2023-04-07T05:31:44;22.57;;;12.37;;
21114;SDS011;10715;48.546;9.896;2023-04-07T05:34:09;19.67;;;10.20;;
21114;SDS011;10715;48.546;9.896;2023-04-07T05:36:35;15.33;;;8.53;;
21114;SDS011;10715;48.546;9.896;2023-04-07T05:39:01;13.40;;;8.80;;
21114;SDS011;10715;48.546;9.896;2023-04-07T05:41:27;19.23;;;9.97;;
21114;SDS011;10715;48.546;9.896;2023-04-07T05:43:52;14.00;;;8.33;;
21114;SDS011;10715;48.546;9.896;2023-04-07T05:46:18;10.90;;;6.80;;
21114;SDS011;10715;48.546;9.896;2023-04-07T05:48:44;18.13;;;9.70;;
21114;SDS011;10715;48.546;9.896;2023-04-07T05:51:10;13.63;;;8.00;;
21114;SDS011;10715;48.546;9.896;2023-04-07T05:53:36;16.00;;;9.57;;
21114;SDS011;10715;48.546;9.896;2023-04-07T05:56:01;22.73;;;12.83;;
21114;SDS011;10715;48.546;9.896;2023-04-07T05:58:27;18.30;;;10.27;;
21114;SDS011;10715;48.546;9.896;2023-04-07T06:00:53;18.93;;;9.43;;
21114;SDS011;10715;48.546;9.896;2023-04-07T06:03:18;14.93;;;10.93;;
21114;SDS011;10715;48.546;9.896;2023-04-07T06:05:45;20.73;;;11.23;;
21114;SDS011;10715;48.546;9.896;2023-04-07T06:08:11;21.80;;;12.60;;
21114;SDS011;10715;48.546;9.896;2023-04-07T06:10:37;18.60;;;9.87;;
21114;SDS011;10715;48.546;9.896;2023-04-07T06:13:03;18.30;;;10.17;;
21114;SDS011;10715;48.546;9.896;2023-04-07T06:15:30;17.13;;;10.30;;
21114;SDS011;10715;48.546;9.896;2023-04-07T06:17:55;21.60;;;10.70;;
21114;SDS011;10715;48.546;9.896;2023-04-07T06:20:21;15.33;;;9.67;;
21114;SDS011;10715;48.546;9.896;2023-04-07T06:22:47;15.30;;;10.47;;
21114;SDS011;10715;48.546;9.896;2023-04-07T06:25:12;19.70;;;11.53;;
21114;SDS011;10715;48.546;9.896;2023-04-07T06:27:38;16.73;;;10.80;;
21114;SDS011;10715;48.546;9.896;2023-04-07T06:30:04;17.47;;;10.67;;
21114;SDS011;10715;48.546;9.896;2023-04-07T06:32:30;16.43;;;10.07;;
21114;SDS011;10715;48.546;9.896;2023-04-07T06:34:57;18.67;;;10.57;;
21114;SDS011;10715;48.546;9.896;2023-04-07T06:37:23;18.37;;;10.17;;
21114;SDS011;10715;48.546;9.896;2023-04-07T06:39:50;19.70;;;11.00;;
21114;SDS011;10715;48.546;9.896;2023-04-07T06:42:15;23.50;;;12.50;;
21114;SDS011;10715;48.546;9.896;2023-04-07T06:44:41;15.43;;;9.93;;
21114;SDS011;10715;48.546;9.896;2023-04-07T06:47:07;18.73;;;11.00;;
21114;SDS011;10715;48.546;9.896;2023-04-07T06:49:33;19.50;;;9.43;;
21114;SDS011;10715;48.546;9.896;2023-04-07T06:51:59;19.60;;;10.77;;
21114;SDS011;10715;48.546;9.896;2023-04-07T06:54:25;18.07;;;10.97;;
21114;SDS011;10715;48.546;9.896;2023-04-07T06:56:50;21.80;;;12.17;;
21114;SDS011;10715;48.546;9.896;2023-04-07T06:59:16;21.27;;;11.30;;
21114;SDS011;10715;48.546;9.896;2023-04-07T07:01:42;23.80;;;11.20;;
21114;SDS011;10715;48.546;9.896;2023-04-07T07:04:08;20.80;;;12.57;;
21114;SDS011;10715;48.546;9.896;2023-04-07T07:06:34;18.07;;;11.03;;
21114;SDS011;10715;48.546;9.896;2023-04-07T07:09:00;22.10;;;13.23;;
21114;SDS011;10715;48.546;9.896;2023-04-07T07:11:27;26.10;;;14.03;;
21114;SDS011;10715;48.546;9.896;2023-04-07T07:13:53;23.57;;;13.00;;
21114;SDS011;10715;48.546;9.896;2023-04-07T07:16:19;17.63;;;12.33;;
21114;SDS011;10715;48.546;9.896;2023-04-07T07:18:47;22.00;;;11.40;;
21114;SDS011;10715;48.546;9.896;2023-04-07T07:21:13;21.30;;;12.67;;
21114;SDS011;10715;48.546;9.896;2023-04-07T07:23:40;20.13;;;12.90;;
21114;SDS011;10715;48.546;9.896;2023-04-07T07:26:05;16.43;;;11.70;;
21114;SDS011;10715;48.546;9.896;2023-04-07T07:28:31;24.77;;;13.00;;
21114;SDS011;10715;48.546;9.896;2023-04-07T07:30:57;28.17;;;14.07;;
21114;SDS011;10715;48.546;9.896;2023-04-07T07:33:22;28.07;;;15.50;;
21114;SDS011;10715;48.546;9.896;2023-04-07T07:35:48;25.40;;;12.70;;
21114;SDS011;10715;48.546;9.896;2023-04-07T07:38:14;18.13;;;11.50;;
21114;SDS011;10715;48.546;9.896;2023-04-07T07:40:40;18.90;;;11.80;;
21114;SDS011;10715;48.546;9.896;2023-04-07T07:43:05;28.67;;;11.97;;
21114;SDS011;10715;48.546;9.896;2023-04-07T07:45:31;24.70;;;12.40;;
21114;SDS011;10715;48.546;9.896;2023-04-07T07:47:57;14.70;;;12.50;;
21114;SDS011;10715;48.546;9.896;2023-04-07T07:50:22;25.00;;;12.80;;
21114;SDS011;10715;48.546;9.896;2023-04-07T07:52:48;22.33;;;13.13;;
21114;SDS011;10715;48.546;9.896;2023-04-07T07:55:14;29.07;;;14.40;;
21114;SDS011;10715;48.546;9.896;2023-04-07T07:57:40;21.83;;;11.57;;
21114;SDS011;10715;48.546;9.896;2023-04-07T08:00:05;18.27;;;13.10;;
21114;SDS011;10715;48.546;9.896;2023-04-07T08:02:31;24.80;;;13.00;;
21114;SDS011;10715;48.546;9.896;2023-04-07T08:04:58;20.80;;;12.50;;
21114;SDS011;10715;48.546;9.896;2023-04-07T08:07:24;34.33;;;19.73;;
21114;SDS011;10715;48.546;9.896;2023-04-07T08:09:51;25.30;;;15.40;;
21114;SDS011;10715;48.546;9.896;2023-04-07T08:12:17;24.87;;;12.57;;
21114;SDS011;10715;48.546;9.896;2023-04-07T08:14:43;21.07;;;12.87;;
21114;SDS011;10715;48.546;9.896;2023-04-07T08:17:09;21.30;;;12.43;;
21114;SDS011;10715;48.546;9.896;2023-04-07T08:19:35;20.10;;;11.60;;
21114;SDS011;10715;48.546;9.896;2023-04-07T08:22:00;18.93;;;11.50;;
21114;SDS011;10715;48.546;9.896;2023-04-07T08:24:27;15.80;;;10.93;;
21114;SDS011;10715;48.546;9.896;2023-04-07T08:26:53;17.80;;;11.07;;
21114;SDS011;10715;48.546;9.896;2023-04-07T08:29:19;24.43;;;11.17;;
21114;SDS011;10715;48.546;9.896;2023-04-07T08:31:44;15.43;;;8.80;;
21114;SDS011;10715;48.546;9.896;2023-04-07T08:34:10;15.30;;;9.97;;
21114;SDS011;10715;48.546;9.896;2023-04-07T08:36:37;13.83;;;7.73;;
21114;SDS011;10715;48.546;9.896;2023-04-07T08:39:03;15.67;;;9.60;;
21114;SDS011;10715;48.546;9.896;2023-04-07T08:41:32;18.37;;;10.73;;
21114;SDS011;10715;48.546;9.896;2023-04-07T08:44:01;12.07;;;9.27;;
21114;SDS011;10715;48.546;9.896;2023-04-07T08:46:28;10.73;;;7.33;;
21114;SDS011;10715;48.546;9.896;2023-04-07T08:48:55;12.50;;;8.97;;
21114;SDS011;10715;48.546;9.896;2023-04-07T08:51:31;12.90;;;9.13;;
21114;SDS011;10715;48.546;9.896;2023-04-07T08:54:10;16.40;;;8.20;;
21114;SDS011;10715;48.546;9.896;2023-04-07T08:56:38;12.00;;;8.00;;
21114;SDS011;10715;48.546;9.896;2023-04-07T08:59:07;26.93;;;19.43;;
21114;SDS011;10715;48.546;9.896;2023-04-07T09:01:35;12.53;;;8.73;;
21114;SDS011;10715;48.546;9.896;2023-04-07T09:04:04;13.37;;;7.87;;
21114;SDS011;10715;48.546;9.896;2023-04-07T09:06:32;11.57;;;7.70;;
21114;SDS011;10715;48.546;9.896;2023-04-07T09:08:58;14.40;;;6.80;;
21114;SDS011;10715;48.546;9.896;2023-04-07T09:11:28;11.97;;;6.10;;
21114;SDS011;10715;48.546;9.896;2023-04-07T09:13:54;11.33;;;8.17;;
21114;SDS011;10715;48.546;9.896;2023-04-07T09:16:21;7.07;;;5.90;;
21114;SDS011;10715;48.546;9.896;2023-04-07T09:18:50;9.70;;;5.80;;
21114;SDS011;10715;48.546;9.896;2023-04-07T09:21:17;10.43;;;6.50;;
21114;SDS011;10715;48.546;9.896;2023-04-07T09:23:43;8.87;;;5.67;;
21114;SDS011;10715;48.546;9.896;2023-04-07T09:28:51;12.23;;;6.23;;
21114;SDS011;10715;48.546;9.896;2023-04-07T09:31:19;6.73;;;3.80;;
21114;SDS011;10715;48.546;9.896;2023-04-07T09:33:50;5.77;;;4.63;;
21114;SDS011;10715;48.546;9.896;2023-04-07T09:36:16;25.47;;;5.80;;
21114;SDS011;10715;48.546;9.896;2023-04-07T09:38:43;14.30;;;6.03;;
21114;SDS011;10715;48.546;9.896;2023-04-07T09:41:13;6.90;;;4.30;;
21114;SDS011;10715;48.546;9.896;2023-04-07T09:43:44;7.33;;;4.80;;
21114;SDS011;10715;48.546;9.896;2023-04-07T09:48:37;7.63;;;5.60;;
21114;SDS011;10715;48.546;9.896;2023-04-07T09:51:13;5.57;;;5.00;;
21114;SDS011;10715;48.546;9.896;2023-04-07T09:53:44;6.40;;;5.70;;
21114;SDS011;10715;48.546;9.896;2023-04-07T09:56:12;6.60;;;4.23;;
21114;SDS011;10715;48.546;9.896;2023-04-07T09:58:40;6.03;;;4.97;;
21114;SDS011;10715;48.546;9.896;2023-04-07T10:01:08;8.27;;;5.23;;
21114;SDS011;10715;48.546;9.896;2023-04-07T10:03:35;7.53;;;5.07;;
21114;SDS011;10715;48.546;9.896;2023-04-07T10:06:02;5.97;;;5.20;;
21114;SDS011;10715;48.546;9.896;2023-04-07T10:08:29;5.77;;;3.60;;
21114;SDS011;10715;48.546;9.896;2023-04-07T10:10:56;6.20;;;4.40;;
21114;SDS011;10715;48.546;9.896;2023-04-07T10:13:26;6.30;;;4.10;;
21114;SDS011;10715;48.546;9.896;2023-04-07T10:15:53;11.97;;;5.23;;
21114;SDS011;10715;48.546;9.896;2023-04-07T10:18:20;8.10;;;6.90;;
21114;SDS011;10715;48.546;9.896;2023-04-07T10:20:49;8.33;;;5.23;;
21114;SDS011;10715;48.546;9.896;2023-04-07T10:23:28;6.10;;;4.70;;
21114;SDS011;10715;48.546;9.896;2023-04-07T10:26:15;5.43;;;3.97;;
21114;SDS011;10715;48.546;9.896;2023-04-07T10:28:44;6.30;;;3.57;;
21114;SDS011;10715;48.546;9.896;2023-04-07T10:31:14;8.30;;;3.33;;
21114;SDS011;10715;48.546;9.896;2023-04-07T10:33:45;4.53;;;4.17;;
21114;SDS011;10715;48.546;9.896;2023-04-07T10:36:16;5.40;;;3.90;;
21114;SDS011;10715;48.546;9.896;2023-04-07T10:39:17;8.47;;;5.03;;
21114;SDS011;10715;48.546;9.896;2023-04-07T10:41:37;4.93;;;4.43;;
21114;SDS011;10715;48.546;9.896;2023-04-07T10:44:05;5.77;;;4.60;;
21114;SDS011;10715;48.546;9.896;2023-04-07T10:49:11;6.27;;;5.23;;
21114;SDS011;10715;48.546;9.896;2023-04-07T10:51:38;6.37;;;5.73;;
21114;SDS011;10715;48.546;9.896;2023-04-07T10:54:16;12.80;;;7.70;;
21114;SDS011;10715;48.546;9.896;2023-04-07T10:59:27;6.27;;;5.63;;
21114;SDS011;10715;48.546;9.896;2023-04-07T11:04:40;5.80;;;4.30;;
21114;SDS011;10715;48.546;9.896;2023-04-07T11:07:10;7.63;;;4.93;;
21114;SDS011;10715;48.546;9.896;2023-04-07T11:09:38;5.80;;;3.27;;
21114;SDS011;10715;48.546;9.896;2023-04-07T11:12:04;3.43;;;2.87;;
21114;SDS011;10715;48.546;9.896;2023-04-07T11:14:31;6.40;;;3.67;;
21114;SDS011;10715;48.546;9.896;2023-04-07T11:16:58;6.00;;;3.40;;
21114;SDS011;10715;48.546;9.896;2023-04-07T11:19:28;6.57;;;3.97;;
21114;SDS011;10715;48.546;9.896;2023-04-07T11:22:13;4.33;;;2.80;;
21114;SDS011;10715;48.546;9.896;2023-04-07T11:24:40;3.10;;;2.33;;
21114;SDS011;10715;48.546;9.896;2023-04-07T11:27:11;3.20;;;2.90;;
21114;SDS011;10715;48.546;9.896;2023-04-07T11:29:37;3.90;;;3.60;;
21114;SDS011;10715;48.546;9.896;2023-04-07T11:32:03;7.97;;;4.13;;
21114;SDS011;10715;48.546;9.896;2023-04-07T11:34:32;9.10;;;3.77;;
21114;SDS011;10715;48.546;9.896;2023-04-07T11:37:42;2.77;;;2.30;;
21114;SDS011;10715;48.546;9.896;2023-04-07T11:39:53;3.30;;;3.10;;
21114;SDS011;10715;48.546;9.896;2023-04-07T11:42:30;4.23;;;3.90;;
21114;SDS011;10715;48.546;9.896;2023-04-07T11:44:57;4.33;;;2.80;;
21114;SDS011;10715;48.546;9.896;2023-04-07T11:47:32;5.73;;;4.57;;
21114;SDS011;10715;48.546;9.896;2023-04-07T11:50:02;4.57;;;2.67;;
21114;SDS011;10715;48.546;9.896;2023-04-07T11:52:28;2.43;;;2.23;;
21114;SDS011;10715;48.546;9.896;2023-04-07T11:55:04;3.27;;;3.07;;
21114;SDS011;10715;48.546;9.896;2023-04-07T11:57:30;3.00;;;2.70;;
21114;SDS011;10715;48.546;9.896;2023-04-07T12:00:09;3.40;;;2.73;;
21114;SDS011;10715;48.546;9.896;2023-04-07T12:02:36;2.40;;;2.20;;
21114;SDS011;10715;48.546;9.896;2023-04-07T12:05:02;3.93;;;2.93;;
21114;SDS011;10715;48.546;9.896;2023-04-07T12:07:29;3.53;;;2.50;;
21114;SDS011;10715;48.546;9.896;2023-04-07T12:09:55;5.70;;;3.70;;
21114;SDS011;10715;48.546;9.896;2023-04-07T12:12:24;6.97;;;3.10;;
21114;SDS011;10715;48.546;9.896;2023-04-07T12:14:51;4.27;;;2.30;;
21114;SDS011;10715;48.546;9.896;2023-04-07T12:17:20;4.03;;;2.33;;
21114;SDS011;10715;48.546;9.896;2023-04-07T12:19:47;5.37;;;3.13;;
21114;SDS011;10715;48.546;9.896;2023-04-07T12:22:13;6.17;;;3.10;;
21114;SDS011;10715;48.546;9.896;2023-04-07T12:24:39;2.50;;;2.30;;
21114;SDS011;10715;48.546;9.896;2023-04-07T12:27:04;6.23;;;3.50;;
21114;SDS011;10715;48.546;9.896;2023-04-07T12:29:30;5.60;;;4.43;;
21114;SDS011;10715;48.546;9.896;2023-04-07T12:31:57;5.60;;;3.80;;
21114;SDS011;10715;48.546;9.896;2023-04-07T12:34:22;4.57;;;3.67;;
21114;SDS011;10715;48.546;9.896;2023-04-07T12:36:48;11.07;;;3.97;;
21114;SDS011;10715;48.546;9.896;2023-04-07T12:39:14;7.33;;;4.27;;
21114;SDS011;10715;48.546;9.896;2023-04-07T12:41:40;4.33;;;3.90;;
21114;SDS011;10715;48.546;9.896;2023-04-07T12:44:06;6.20;;;4.57;;
21114;SDS011;10715;48.546;9.896;2023-04-07T12:46:32;4.73;;;3.70;;
21114;SDS011;10715;48.546;9.896;2023-04-07T12:48:58;7.33;;;3.97;;
21114;SDS011;10715;48.546;9.896;2023-04-07T12:51:24;3.90;;;3.60;;
21114;SDS011;10715;48.546;9.896;2023-04-07T12:53:50;8.20;;;4.37;;
21114;SDS011;10715;48.546;9.896;2023-04-07T12:56:15;6.63;;;4.43;;
21114;SDS011;10715;48.546;9.896;2023-04-07T12:58:41;12.80;;;6.43;;
21114;SDS011;10715;48.546;9.896;2023-04-07T13:01:07;8.10;;;4.93;;
21114;SDS011;10715;48.546;9.896;2023-04-07T13:03:33;4.17;;;3.70;;
21114;SDS011;10715;48.546;9.896;2023-04-07T13:05:59;2.97;;;2.70;;
21114;SDS011;10715;48.546;9.896;2023-04-07T13:08:28;6.07;;;2.87;;
21114;SDS011;10715;48.546;9.896;2023-04-07T13:10:54;6.40;;;3.27;;
21114;SDS011;10715;48.546;9.896;2023-04-07T13:13:20;4.70;;;2.63;;
21114;SDS011;10715;48.546;9.896;2023-04-07T13:15:46;4.40;;;3.43;;
21114;SDS011;10715;48.546;9.896;2023-04-07T13:18:12;11.13;;;3.73;;
21114;SDS011;10715;48.546;9.896;2023-04-07T13:20:38;3.13;;;2.87;;
21114;SDS011;10715;48.546;9.896;2023-04-07T13:23:04;7.13;;;4.47;;
21114;SDS011;10715;48.546;9.896;2023-04-07T13:25:30;4.20;;;3.90;;
21114;SDS011;10715;48.546;9.896;2023-04-07T13:27:55;5.77;;;5.27;;
21114;SDS011;10715;48.546;9.896;2023-04-07T13:30:21;3.93;;;2.97;;
21114;SDS011;10715;48.546;9.896;2023-04-07T13:32:47;8.40;;;3.23;;
21114;SDS011;10715;48.546;9.896;2023-04-07T13:35:14;5.37;;;3.57;;
21114;SDS011;10715;48.546;9.896;2023-04-07T13:37:41;5.10;;;2.83;;
21114;SDS011;10715;48.546;9.896;2023-04-07T13:40:07;3.33;;;2.67;;
21114;SDS011;10715;48.546;9.896;2023-04-07T13:42:33;4.17;;;3.77;;
21114;SDS011;10715;48.546;9.896;2023-04-07T13:44:59;4.80;;;4.27;;
21114;SDS011;10715;48.546;9.896;2023-04-07T13:47:25;5.50;;;5.10;;
21114;SDS011;10715;48.546;9.896;2023-04-07T13:49:53;6.53;;;5.27;;
21114;SDS011;10715;48.546;9.896;2023-04-07T13:52:19;4.83;;;4.30;;
21114;SDS011;10715;48.546;9.896;2023-04-07T13:54:46;5.63;;;4.33;;
21114;SDS011;10715;48.546;9.896;2023-04-07T13:57:11;6.20;;;3.90;;
21114;SDS011;10715;48.546;9.896;2023-04-07T13:59:43;3.00;;;2.80;;
21114;SDS011;10715;48.546;9.896;2023-04-07T14:02:09;6.43;;;3.63;;
21114;SDS011;10715;48.546;9.896;2023-04-07T14:04:35;10.13;;;6.10;;
21114;SDS011;10715;48.546;9.896;2023-04-07T14:07:01;7.23;;;3.90;;
21114;SDS011;10715;48.546;9.896;2023-04-07T14:09:28;4.80;;;4.50;;
21114;SDS011;10715;48.546;9.896;2023-04-07T14:11:54;6.43;;;4.70;;
21114;SDS011;10715;48.546;9.896;2023-04-07T14:14:21;6.50;;;4.93;;
21114;SDS011;10715;48.546;9.896;2023-04-07T14:16:47;5.77;;;4.43;;
21114;SDS011;10715;48.546;9.896;2023-04-07T14:19:16;5.57;;;5.20;;
21114;SDS011;10715;48.546;9.896;2023-04-07T14:21:46;8.50;;;5.57;;
21114;SDS011;10715;48.546;9.896;2023-04-07T14:24:12;6.60;;;3.57;;
21114;SDS011;10715;48.546;9.896;2023-04-07T14:26:37;3.40;;;3.10;;
21114;SDS011;10715;48.546;9.896;2023-04-07T14:29:03;5.50;;;3.13;;
21114;SDS011;10715;48.546;9.896;2023-04-07T14:31:29;5.83;;;3.60;;
21114;SDS011;10715;48.546;9.896;2023-04-07T14:33:54;5.43;;;2.80;;
21114;SDS011;10715;48.546;9.896;2023-04-07T14:36:20;4.03;;;3.57;;
21114;SDS011;10715;48.546;9.896;2023-04-07T14:38:46;3.33;;;3.00;;
21114;SDS011;10715;48.546;9.896;2023-04-07T14:41:12;3.63;;;3.33;;
21114;SDS011;10715;48.546;9.896;2023-04-07T14:43:38;3.37;;;3.10;;
21114;SDS011;10715;48.546;9.896;2023-04-07T14:46:04;8.53;;;3.57;;
21114;SDS011;10715;48.546;9.896;2023-04-07T14:48:29;3.60;;;2.20;;
21114;SDS011;10715;48.546;9.896;2023-04-07T14:50:56;3.87;;;2.97;;
21114;SDS011;10715;48.546;9.896;2023-04-07T14:53:22;3.57;;;1.60;;
21114;SDS011;10715;48.546;9.896;2023-04-07T14:55:47;5.60;;;1.67;;
21114;SDS011;10715;48.546;9.896;2023-04-07T14:58:13;2.40;;;2.17;;
21114;SDS011;10715;48.546;9.896;2023-04-07T15:00:39;4.13;;;2.30;;
21114;SDS011;10715;48.546;9.896;2023-04-07T15:03:05;4.63;;;2.30;;
21114;SDS011;10715;48.546;9.896;2023-04-07T15:05:30;5.30;;;3.57;;